sensor_id;sensor_type;location;lat;lon;timestamp;pressure;altitude;pressure_sealevel;temperature
8533;BMP280;4304;53.876;10.662;2023-03-15T00:01:07;100590.75;;;0.98
8533;BMP280;4304;53.876;10.662;2023-03-15T00:03:33;100588.00;;;1.04
8533;BMP280;4304;53.876;10.662;2023-03-15T00:06:02;100589.63;;;1.07
8533;BMP280;4304;53.876;10.662;2023-03-15T00:08:28;100594.19;;;0.97
8533;BMP280;4304;53.876;10.662;2023-03-15T00:10:54;100602.63;;;0.99
8533;BMP280;4304;53.876;10.662;2023-03-15T00:13:19;100608.50;;;1.03
8533;BMP280;4304;53.876;10.662;2023-03-15T00:15:46;100619.63;;;1.02
8533;BMP280;4304;53.876;10.662;2023-03-15T00:18:12;100618.94;;;0.97
8533;BMP280;4304;53.876;10.662;2023-03-15T00:20:37;100625.78;;;0.95
8533;BMP280;4304;53.876;10.662;2023-03-15T00:23:03;100632.72;;;0.91
8533;BMP280;4304;53.876;10.662;2023-03-15T00:25:28;100627.00;;;0.83
8533;BMP280;4304;53.876;10.662;2023-03-15T00:27:53;100631.97;;;0.88
8533;BMP280;4304;53.876;10.662;2023-03-15T00:30:19;100622.03;;;0.79
8533;BMP280;4304;53.876;10.662;2023-03-15T00:32:44;100625.59;;;0.74
8533;BMP280;4304;53.876;10.662;2023-03-15T00:35:10;100627.16;;;0.79
8533;BMP280;4304;53.876;10.662;2023-03-15T00:37:37;100639.28;;;0.73
8533;BMP280;4304;53.876;10.662;2023-03-15T00:40:03;100645.34;;;0.69
8533;BMP280;4304;53.876;10.662;2023-03-15T00:42:30;100650.56;;;0.66
8533;BMP280;4304;53.876;10.662;2023-03-15T00:44:55;100658.78;;;0.75
8533;BMP280;4304;53.876;10.662;2023-03-15T00:47:20;100663.13;;;0.73
8533;BMP280;4304;53.876;10.662;2023-03-15T00:49:46;100652.94;;;0.72
8533;BMP280;4304;53.876;10.662;2023-03-15T00:52:11;100661.34;;;0.75
8533;BMP280;4304;53.876;10.662;2023-03-15T00:54:37;100673.22;;;0.78
8533;BMP280;4304;53.876;10.662;2023-03-15T00:57:02;100662.34;;;0.71
8533;BMP280;4304;53.876;10.662;2023-03-15T00:59:30;100671.75;;;0.71
8533;BMP280;4304;53.876;10.662;2023-03-15T01:02:00;100679.38;;;0.72
8533;BMP280;4304;53.876;10.662;2023-03-15T01:04:25;100692.94;;;0.74
8533;BMP280;4304;53.876;10.662;2023-03-15T01:06:50;100684.59;;;0.68
8533;BMP280;4304;53.876;10.662;2023-03-15T01:09:16;100684.59;;;0.68
8533;BMP280;4304;53.876;10.662;2023-03-15T01:11:41;100682.09;;;0.66
8533;BMP280;4304;53.876;10.662;2023-03-15T01:14:08;100693.06;;;0.70
8533;BMP280;4304;53.876;10.662;2023-03-15T01:16:34;100691.34;;;0.70
8533;BMP280;4304;53.876;10.662;2023-03-15T01:18:59;100683.38;;;0.81
8533;BMP280;4304;53.876;10.662;2023-03-15T01:21:24;100690.88;;;0.85
8533;BMP280;4304;53.876;10.662;2023-03-15T01:23:50;100687.47;;;0.86
8533;BMP280;4304;53.876;10.662;2023-03-15T01:26:16;100703.47;;;0.92
8533;BMP280;4304;53.876;10.662;2023-03-15T01:28:42;100706.78;;;0.96
8533;BMP280;4304;53.876;10.662;2023-03-15T01:31:20;100713.75;;;0.91
8533;BMP280;4304;53.876;10.662;2023-03-15T01:33:46;100700.16;;;0.89
8533;BMP280;4304;53.876;10.662;2023-03-15T01:36:11;100705.28;;;0.89
8533;BMP280;4304;53.876;10.662;2023-03-15T01:38:37;100704.53;;;0.85
8533;BMP280;4304;53.876;10.662;2023-03-15T01:41:02;100707.81;;;0.90
8533;BMP280;4304;53.876;10.662;2023-03-15T01:43:30;100715.63;;;0.84
8533;BMP280;4304;53.876;10.662;2023-03-15T01:48:48;100712.22;;;0.85
8533;BMP280;4304;53.876;10.662;2023-03-15T01:57:17;100737.06;;;1.09
8533;BMP280;4304;53.876;10.662;2023-03-15T01:59:52;100726.03;;;1.07
8533;BMP280;4304;53.876;10.662;2023-03-15T02:02:20;100749.66;;;1.17
8533;BMP280;4304;53.876;10.662;2023-03-15T02:04:56;100736.84;;;1.17
8533;BMP280;4304;53.876;10.662;2023-03-15T02:07:25;100730.84;;;1.18
8533;BMP280;4304;53.876;10.662;2023-03-15T02:10:01;100733.44;;;1.16
8533;BMP280;4304;53.876;10.662;2023-03-15T02:12:31;100737.56;;;1.22
8533;BMP280;4304;53.876;10.662;2023-03-15T02:14:58;100746.09;;;1.21
8533;BMP280;4304;53.876;10.662;2023-03-15T02:17:33;100748.59;;;1.24
8533;BMP280;4304;53.876;10.662;2023-03-15T02:22:59;100760.44;;;1.26
8533;BMP280;4304;53.876;10.662;2023-03-15T02:27:53;100762.94;;;1.27
8533;BMP280;4304;53.876;10.662;2023-03-15T02:30:19;100789.63;;;1.21
8533;BMP280;4304;53.876;10.662;2023-03-15T02:32:45;100789.56;;;1.22
8533;BMP280;4304;53.876;10.662;2023-03-15T02:35:10;100803.16;;;1.24
8533;BMP280;4304;53.876;10.662;2023-03-15T02:37:36;100814.06;;;1.30
8533;BMP280;4304;53.876;10.662;2023-03-15T02:40:01;100819.31;;;1.26
8533;BMP280;4304;53.876;10.662;2023-03-15T02:42:29;100819.97;;;1.32
8533;BMP280;4304;53.876;10.662;2023-03-15T02:44:56;100818.50;;;1.24
8533;BMP280;4304;53.876;10.662;2023-03-15T02:47:24;100819.19;;;1.30
8533;BMP280;4304;53.876;10.662;2023-03-15T02:49:51;100827.28;;;1.16
8533;BMP280;4304;53.876;10.662;2023-03-15T02:52:18;100836.94;;;1.06
8533;BMP280;4304;53.876;10.662;2023-03-15T02:54:44;100834.34;;;1.08
8533;BMP280;4304;53.876;10.662;2023-03-15T02:57:10;100828.78;;;0.94
8533;BMP280;4304;53.876;10.662;2023-03-15T02:59:37;100844.34;;;0.85
8533;BMP280;4304;53.876;10.662;2023-03-15T03:02:02;100851.91;;;0.89
8533;BMP280;4304;53.876;10.662;2023-03-15T03:04:27;100854.31;;;0.95
8533;BMP280;4304;53.876;10.662;2023-03-15T03:06:53;100854.44;;;0.91
8533;BMP280;4304;53.876;10.662;2023-03-15T03:09:18;100856.16;;;0.90
8533;BMP280;4304;53.876;10.662;2023-03-15T03:11:43;100874.06;;;0.90
8533;BMP280;4304;53.876;10.662;2023-03-15T03:14:09;100867.41;;;0.83
8533;BMP280;4304;53.876;10.662;2023-03-15T03:16:38;100882.03;;;0.79
8533;BMP280;4304;53.876;10.662;2023-03-15T03:19:03;100882.84;;;0.81
8533;BMP280;4304;53.876;10.662;2023-03-15T03:21:28;100885.47;;;0.78
8533;BMP280;4304;53.876;10.662;2023-03-15T03:23:54;100884.78;;;0.71
8533;BMP280;4304;53.876;10.662;2023-03-15T03:26:19;100891.53;;;0.74
8533;BMP280;4304;53.876;10.662;2023-03-15T03:28:46;100890.81;;;0.69
8533;BMP280;4304;53.876;10.662;2023-03-15T03:31:18;100893.38;;;0.69
8533;BMP280;4304;53.876;10.662;2023-03-15T03:33:45;100875.78;;;0.57
8533;BMP280;4304;53.876;10.662;2023-03-15T03:36:10;100886.66;;;0.65
8533;BMP280;4304;53.876;10.662;2023-03-15T03:38:41;100884.09;;;0.65
8533;BMP280;4304;53.876;10.662;2023-03-15T03:41:08;100899.59;;;0.59
8533;BMP280;4304;53.876;10.662;2023-03-15T03:43:33;100903.78;;;0.63
8533;BMP280;4304;53.876;10.662;2023-03-15T03:45:59;100899.59;;;0.59
8533;BMP280;4304;53.876;10.662;2023-03-15T03:48:24;100910.69;;;0.59
8533;BMP280;4304;53.876;10.662;2023-03-15T03:50:50;100909.94;;;0.54
8533;BMP280;4304;53.876;10.662;2023-03-15T03:53:16;100919.25;;;0.57
8533;BMP280;4304;53.876;10.662;2023-03-15T03:55:41;100924.44;;;0.54
8533;BMP280;4304;53.876;10.662;2023-03-15T03:58:07;100932.00;;;0.58
8533;BMP280;4304;53.876;10.662;2023-03-15T04:00:33;100928.50;;;0.62
8533;BMP280;4304;53.876;10.662;2023-03-15T04:02:58;100946.47;;;0.59
8533;BMP280;4304;53.876;10.662;2023-03-15T04:05:26;100942.22;;;0.58
8533;BMP280;4304;53.876;10.662;2023-03-15T04:07:51;100951.69;;;0.55
8533;BMP280;4304;53.876;10.662;2023-03-15T04:10:17;100957.63;;;0.55
8533;BMP280;4304;53.876;10.662;2023-03-15T04:12:42;100961.81;;;0.59
8533;BMP280;4304;53.876;10.662;2023-03-15T04:15:09;100967.06;;;0.53
8533;BMP280;4304;53.876;10.662;2023-03-15T04:17:36;100967.88;;;0.54
8533;BMP280;4304;53.876;10.662;2023-03-15T04:20:02;100971.41;;;0.50
8533;BMP280;4304;53.876;10.662;2023-03-15T04:22:33;100978.09;;;0.54
8533;BMP280;4304;53.876;10.662;2023-03-15T04:24:59;100989.16;;;0.56
8533;BMP280;4304;53.876;10.662;2023-03-15T04:27:26;100994.19;;;0.59
8533;BMP280;4304;53.876;10.662;2023-03-15T04:29:52;100999.34;;;0.57
8533;BMP280;4304;53.876;10.662;2023-03-15T04:32:17;100985.78;;;0.54
8533;BMP280;4304;53.876;10.662;2023-03-15T04:34:42;100962.81;;;0.52
8533;BMP280;4304;53.876;10.662;2023-03-15T04:37:08;100966.88;;;0.61
8533;BMP280;4304;53.876;10.662;2023-03-15T04:39:33;100942.44;;;0.49
8533;BMP280;4304;53.876;10.662;2023-03-15T04:41:59;100941.63;;;0.47
8533;BMP280;4304;53.876;10.662;2023-03-15T04:44:24;100953.59;;;0.45
8533;BMP280;4304;53.876;10.662;2023-03-15T04:46:54;100966.22;;;0.53
8533;BMP280;4304;53.876;10.662;2023-03-15T04:49:20;100981.59;;;0.51
8533;BMP280;4304;53.876;10.662;2023-03-15T04:51:45;100986.75;;;0.50
8533;BMP280;4304;53.876;10.662;2023-03-15T04:54:11;100995.38;;;0.46
8533;BMP280;4304;53.876;10.662;2023-03-15T04:56:36;100993.81;;;0.38
8533;BMP280;4304;53.876;10.662;2023-03-15T04:59:02;100995.75;;;0.30
8533;BMP280;4304;53.876;10.662;2023-03-15T05:01:29;100993.06;;;0.34
8533;BMP280;4304;53.876;10.662;2023-03-15T05:03:56;100990.47;;;0.36
8533;BMP280;4304;53.876;10.662;2023-03-15T05:06:21;100986.13;;;0.39
8533;BMP280;4304;53.876;10.662;2023-03-15T05:08:47;100996.50;;;0.33
8533;BMP280;4304;53.876;10.662;2023-03-15T05:11:12;101009.34;;;0.30
8533;BMP280;4304;53.876;10.662;2023-03-15T05:13:37;100994.16;;;0.23
8533;BMP280;4304;53.876;10.662;2023-03-15T05:16:03;101002.53;;;0.29
8533;BMP280;4304;53.876;10.662;2023-03-15T05:18:28;101015.91;;;0.42
8533;BMP280;4304;53.876;10.662;2023-03-15T05:20:54;101022.03;;;0.35
8533;BMP280;4304;53.876;10.662;2023-03-15T05:23:20;101015.22;;;0.34
8533;BMP280;4304;53.876;10.662;2023-03-15T05:25:53;101026.28;;;0.34
8533;BMP280;4304;53.876;10.662;2023-03-15T05:28:23;101030.66;;;0.29
8533;BMP280;4304;53.876;10.662;2023-03-15T05:30:50;101031.38;;;0.34
8533;BMP280;4304;53.876;10.662;2023-03-15T05:33:16;101045.06;;;0.33
8533;BMP280;4304;53.876;10.662;2023-03-15T05:35:42;101045.00;;;0.36
8533;BMP280;4304;53.876;10.662;2023-03-15T05:38:09;101047.47;;;0.39
8533;BMP280;4304;53.876;10.662;2023-03-15T05:40:47;101059.38;;;0.40
8533;BMP280;4304;53.876;10.662;2023-03-15T05:43:12;101061.91;;;0.42
8533;BMP280;4304;53.876;10.662;2023-03-15T05:45:38;101069.56;;;0.43
8533;BMP280;4304;53.876;10.662;2023-03-15T05:48:03;101086.50;;;0.47
8533;BMP280;4304;53.876;10.662;2023-03-15T05:50:29;101078.84;;;0.45
8533;BMP280;4304;53.876;10.662;2023-03-15T05:52:55;101083.16;;;0.43
8533;BMP280;4304;53.876;10.662;2023-03-15T05:55:21;101084.94;;;0.40
8533;BMP280;4304;53.876;10.662;2023-03-15T05:57:47;101098.53;;;0.42
8533;BMP280;4304;53.876;10.662;2023-03-15T06:00:12;101099.41;;;0.41
8533;BMP280;4304;53.876;10.662;2023-03-15T06:02:40;101103.53;;;0.48
8533;BMP280;4304;53.876;10.662;2023-03-15T06:05:05;101111.16;;;0.49
8533;BMP280;4304;53.876;10.662;2023-03-15T06:07:31;101112.84;;;0.50
8533;BMP280;4304;53.876;10.662;2023-03-15T06:09:56;101124.69;;;0.54
8533;BMP280;4304;53.876;10.662;2023-03-15T06:12:21;101113.53;;;0.57
8533;BMP280;4304;53.876;10.662;2023-03-15T06:14:47;101113.44;;;0.63
8533;BMP280;4304;53.876;10.662;2023-03-15T06:17:12;101126.13;;;0.67
8533;BMP280;4304;53.876;10.662;2023-03-15T06:19:37;101139.75;;;0.68
8533;BMP280;4304;53.876;10.662;2023-03-15T06:22:02;101129.44;;;0.72
8533;BMP280;4304;53.876;10.662;2023-03-15T06:24:28;101129.25;;;0.80
8533;BMP280;4304;53.876;10.662;2023-03-15T06:26:54;101143.63;;;0.83
8533;BMP280;4304;53.876;10.662;2023-03-15T06:29:20;101148.50;;;0.95
8533;BMP280;4304;53.876;10.662;2023-03-15T06:31:46;101146.28;;;1.18
8533;BMP280;4304;53.876;10.662;2023-03-15T06:34:15;101153.72;;;1.27
8533;BMP280;4304;53.876;10.662;2023-03-15T06:36:40;101146.59;;;1.39
8533;BMP280;4304;53.876;10.662;2023-03-15T06:39:10;101160.97;;;1.45
8533;BMP280;4304;53.876;10.662;2023-03-15T06:41:37;101158.34;;;1.48
8533;BMP280;4304;53.876;10.662;2023-03-15T06:44:02;101163.63;;;1.40
8533;BMP280;4304;53.876;10.662;2023-03-15T06:46:28;101165.06;;;1.52
8533;BMP280;4304;53.876;10.662;2023-03-15T06:48:53;101156.88;;;1.72
8533;BMP280;4304;53.876;10.662;2023-03-15T06:51:19;101164.34;;;1.80
8533;BMP280;4304;53.876;10.662;2023-03-15T06:53:44;101167.06;;;1.74
8533;BMP280;4304;53.876;10.662;2023-03-15T06:56:10;101177.69;;;1.92
8533;BMP280;4304;53.876;10.662;2023-03-15T06:58:35;101179.59;;;2.16
8533;BMP280;4304;53.876;10.662;2023-03-15T07:01:00;101190.28;;;2.33
8533;BMP280;4304;53.876;10.662;2023-03-15T07:03:25;101180.75;;;2.38
8533;BMP280;4304;53.876;10.662;2023-03-15T07:05:51;101189.69;;;2.23
8533;BMP280;4304;53.876;10.662;2023-03-15T07:08:19;101192.56;;;2.42
8533;BMP280;4304;53.876;10.662;2023-03-15T07:10:44;101200.59;;;2.30
8533;BMP280;4304;53.876;10.662;2023-03-15T07:13:11;101199.28;;;2.46
8533;BMP280;4304;53.876;10.662;2023-03-15T07:15:36;101209.16;;;2.60
8533;BMP280;4304;53.876;10.662;2023-03-15T07:18:01;101241.75;;;2.25
8533;BMP280;4304;53.876;10.662;2023-03-15T07:20:27;101255.06;;;1.71
8533;BMP280;4304;53.876;10.662;2023-03-15T07:22:52;101257.66;;;1.70
8533;BMP280;4304;53.876;10.662;2023-03-15T07:25:17;101244.50;;;1.49
8533;BMP280;4304;53.876;10.662;2023-03-15T07:27:48;101251.69;;;1.33
8533;BMP280;4304;53.876;10.662;2023-03-15T07:30:15;101254.22;;;1.35
8533;BMP280;4304;53.876;10.662;2023-03-15T07:32:41;101256.13;;;1.27
8533;BMP280;4304;53.876;10.662;2023-03-15T07:35:06;101256.13;;;1.27
8533;BMP280;4304;53.876;10.662;2023-03-15T07:37:32;101264.47;;;1.35
8533;BMP280;4304;53.876;10.662;2023-03-15T07:39:57;101254.53;;;1.22
8533;BMP280;4304;53.876;10.662;2023-03-15T07:42:24;101251.31;;;1.12
8533;BMP280;4304;53.876;10.662;2023-03-15T07:44:49;101246.84;;;1.22
8533;BMP280;4304;53.876;10.662;2023-03-15T07:47:15;101261.22;;;1.27
8533;BMP280;4304;53.876;10.662;2023-03-15T07:49:40;101255.88;;;1.37
8533;BMP280;4304;53.876;10.662;2023-03-15T07:52:06;101261.66;;;1.45
8533;BMP280;4304;53.876;10.662;2023-03-15T07:54:31;101266.41;;;1.62
8533;BMP280;4304;53.876;10.662;2023-03-15T07:56:58;101271.94;;;1.80
8533;BMP280;4304;53.876;10.662;2023-03-15T07:59:23;101272.63;;;2.21
8533;BMP280;4304;53.876;10.662;2023-03-15T08:01:49;101272.31;;;2.33
8533;BMP280;4304;53.876;10.662;2023-03-15T08:04:14;101268.91;;;2.32
8533;BMP280;4304;53.876;10.662;2023-03-15T08:06:39;101275.03;;;2.27
8533;BMP280;4304;53.876;10.662;2023-03-15T08:09:18;101305.75;;;2.30
8533;BMP280;4304;53.876;10.662;2023-03-15T08:11:43;101305.25;;;2.14
8533;BMP280;4304;53.876;10.662;2023-03-15T08:14:09;101303.28;;;1.91
8533;BMP280;4304;53.876;10.662;2023-03-15T08:16:34;101287.94;;;1.89
8533;BMP280;4304;53.876;10.662;2023-03-15T08:18:59;101279.78;;;1.74
8533;BMP280;4304;53.876;10.662;2023-03-15T08:21:24;101285.72;;;1.76
8533;BMP280;4304;53.876;10.662;2023-03-15T08:23:50;101281.34;;;1.79
8533;BMP280;4304;53.876;10.662;2023-03-15T08:26:15;101267.72;;;1.79
8533;BMP280;4304;53.876;10.662;2023-03-15T08:28:41;101279.59;;;1.81
8533;BMP280;4304;53.876;10.662;2023-03-15T08:31:07;101291.28;;;1.93
8533;BMP280;4304;53.876;10.662;2023-03-15T08:33:33;101292.91;;;1.97
8533;BMP280;4304;53.876;10.662;2023-03-15T08:35:59;101291.81;;;2.07
8533;BMP280;4304;53.876;10.662;2023-03-15T08:38:25;101295.41;;;2.33
8533;BMP280;4304;53.876;10.662;2023-03-15T08:40:57;101296.16;;;2.68
8533;BMP280;4304;53.876;10.662;2023-03-15T08:43:23;101289.06;;;3.07
8533;BMP280;4304;53.876;10.662;2023-03-15T08:45:49;101306.06;;;3.40
8533;BMP280;4304;53.876;10.662;2023-03-15T08:48:15;101301.44;;;3.78
8533;BMP280;4304;53.876;10.662;2023-03-15T08:50:40;101301.53;;;4.02
8533;BMP280;4304;53.876;10.662;2023-03-15T08:53:06;101307.31;;;4.09
8533;BMP280;4304;53.876;10.662;2023-03-15T08:55:32;101323.34;;;4.17
8533;BMP280;4304;53.876;10.662;2023-03-15T08:57:57;101326.78;;;4.16
8533;BMP280;4304;53.876;10.662;2023-03-15T09:00:25;101319.63;;;4.25
8533;BMP280;4304;53.876;10.662;2023-03-15T09:02:52;101327.38;;;4.23
8533;BMP280;4304;53.876;10.662;2023-03-15T09:05:18;101320.50;;;4.24
8533;BMP280;4304;53.876;10.662;2023-03-15T09:07:44;101323.66;;;4.32
8533;BMP280;4304;53.876;10.662;2023-03-15T09:10:12;101339.94;;;4.58
8533;BMP280;4304;53.876;10.662;2023-03-15T09:12:40;101337.47;;;4.79
8533;BMP280;4304;53.876;10.662;2023-03-15T09:15:07;101338.19;;;4.83
8533;BMP280;4304;53.876;10.662;2023-03-15T09:17:32;101333.72;;;5.12
8533;BMP280;4304;53.876;10.662;2023-03-15T09:19:58;101327.38;;;5.20
8533;BMP280;4304;53.876;10.662;2023-03-15T09:22:24;101337.88;;;5.39
8533;BMP280;4304;53.876;10.662;2023-03-15T09:24:50;101341.97;;;5.44
8533;BMP280;4304;53.876;10.662;2023-03-15T09:27:17;101359.38;;;5.15
8533;BMP280;4304;53.876;10.662;2023-03-15T09:29:42;101368.94;;;4.63
8533;BMP280;4304;53.876;10.662;2023-03-15T09:32:08;101358.81;;;4.33
8533;BMP280;4304;53.876;10.662;2023-03-15T09:34:36;101371.88;;;3.73
8533;BMP280;4304;53.876;10.662;2023-03-15T09:37:01;101372.09;;;3.65
8533;BMP280;4304;53.876;10.662;2023-03-15T09:39:27;101383.47;;;3.57
8533;BMP280;4304;53.876;10.662;2023-03-15T09:41:55;101384.75;;;3.44
8533;BMP280;4304;53.876;10.662;2023-03-15T09:44:51;101371.38;;;3.60
8533;BMP280;4304;53.876;10.662;2023-03-15T09:50:21;101377.97;;;4.24
8533;BMP280;4304;53.876;10.662;2023-03-15T09:53:23;101387.28;;;4.27
8533;BMP280;4304;53.876;10.662;2023-03-15T09:55:49;101383.16;;;4.73
8533;BMP280;4304;53.876;10.662;2023-03-15T09:58:20;101397.19;;;4.90
8533;BMP280;4304;53.876;10.662;2023-03-15T10:00:53;101397.56;;;4.80
8533;BMP280;4304;53.876;10.662;2023-03-15T10:03:26;101409.59;;;4.78
8533;BMP280;4304;53.876;10.662;2023-03-15T10:05:58;101390.97;;;4.96
8533;BMP280;4304;53.876;10.662;2023-03-15T10:08:25;101390.44;;;5.10
8533;BMP280;4304;53.876;10.662;2023-03-15T10:11:09;101397.31;;;5.34
8533;BMP280;4304;53.876;10.662;2023-03-15T10:16:43;101399.34;;;5.72
8533;BMP280;4304;53.876;10.662;2023-03-15T10:24:22;101398.47;;;5.71
8533;BMP280;4304;53.876;10.662;2023-03-15T10:26:50;101385.47;;;5.76
8533;BMP280;4304;53.876;10.662;2023-03-15T10:29:19;101399.75;;;5.84
8533;BMP280;4304;53.876;10.662;2023-03-15T10:31:46;101401.47;;;5.61
8533;BMP280;4304;53.876;10.662;2023-03-15T10:34:13;101405.28;;;5.51
8533;BMP280;4304;53.876;10.662;2023-03-15T10:36:44;101401.53;;;5.82
8533;BMP280;4304;53.876;10.662;2023-03-15T10:39:10;101394.63;;;5.83
8533;BMP280;4304;53.876;10.662;2023-03-15T10:41:42;101384.88;;;6.33
8533;BMP280;4304;53.876;10.662;2023-03-15T10:44:20;101400.53;;;6.50
8533;BMP280;4304;53.876;10.662;2023-03-15T10:47:04;101415.34;;;6.66
8533;BMP280;4304;53.876;10.662;2023-03-15T10:49:40;101410.59;;;6.36
8533;BMP280;4304;53.876;10.662;2023-03-15T10:52:26;101407.63;;;6.02
8533;BMP280;4304;53.876;10.662;2023-03-15T10:54:52;101401.38;;;5.87
8533;BMP280;4304;53.876;10.662;2023-03-15T10:57:19;101403.28;;;5.82
8533;BMP280;4304;53.876;10.662;2023-03-15T10:59:57;101406.41;;;5.44
8533;BMP280;4304;53.876;10.662;2023-03-15T11:02:31;101395.63;;;5.33
8533;BMP280;4304;53.876;10.662;2023-03-15T11:05:01;101390.16;;;5.42
8533;BMP280;4304;53.876;10.662;2023-03-15T11:07:27;101395.13;;;5.47
8533;BMP280;4304;53.876;10.662;2023-03-15T11:09:58;101404.66;;;5.45
8533;BMP280;4304;53.876;10.662;2023-03-15T11:14:55;101398.78;;;5.41
8533;BMP280;4304;53.876;10.662;2023-03-15T11:17:24;101405.25;;;5.28
8533;BMP280;4304;53.876;10.662;2023-03-15T11:22:19;101417.84;;;5.13
8533;BMP280;4304;53.876;10.662;2023-03-15T11:24:45;101419.56;;;5.59
8533;BMP280;4304;53.876;10.662;2023-03-15T11:27:14;101428.28;;;5.33
8533;BMP280;4304;53.876;10.662;2023-03-15T11:29:49;101429.94;;;5.11
8533;BMP280;4304;53.876;10.662;2023-03-15T11:32:25;101426.72;;;5.05
8533;BMP280;4304;53.876;10.662;2023-03-15T11:35:01;101423.81;;;5.38
8533;BMP280;4304;53.876;10.662;2023-03-15T11:37:37;101422.09;;;5.61
8533;BMP280;4304;53.876;10.662;2023-03-15T11:40:17;101436.88;;;6.03
8533;BMP280;4304;53.876;10.662;2023-03-15T11:45:47;101416.97;;;6.28
8533;BMP280;4304;53.876;10.662;2023-03-15T11:48:20;101417.41;;;6.37
8533;BMP280;4304;53.876;10.662;2023-03-15T11:50:55;101417.41;;;6.58
8533;BMP280;4304;53.876;10.662;2023-03-15T11:53:24;101427.56;;;6.82
8533;BMP280;4304;53.876;10.662;2023-03-15T11:55:51;101422.75;;;6.95
8533;BMP280;4304;53.876;10.662;2023-03-15T11:58:33;101445.97;;;7.16
8533;BMP280;4304;53.876;10.662;2023-03-15T12:01:01;101436.97;;;7.24
8533;BMP280;4304;53.876;10.662;2023-03-15T12:03:34;101425.69;;;6.86
8533;BMP280;4304;53.876;10.662;2023-03-15T12:10:59;101436.28;;;6.60
8533;BMP280;4304;53.876;10.662;2023-03-15T12:13:30;101428.47;;;6.40
8533;BMP280;4304;53.876;10.662;2023-03-15T12:15:56;101424.22;;;5.95
8533;BMP280;4304;53.876;10.662;2023-03-15T12:18:38;101438.06;;;5.48
8533;BMP280;4304;53.876;10.662;2023-03-15T12:21:09;101469.81;;;4.74
8533;BMP280;4304;53.876;10.662;2023-03-15T12:23:42;101472.19;;;4.00
8533;BMP280;4304;53.876;10.662;2023-03-15T12:26:14;101468.75;;;3.71
8533;BMP280;4304;53.876;10.662;2023-03-15T12:29:01;101462.63;;;3.44
8533;BMP280;4304;53.876;10.662;2023-03-15T12:34:51;101466.28;;;3.36
8533;BMP280;4304;53.876;10.662;2023-03-15T12:37:19;101456.41;;;3.23
8533;BMP280;4304;53.876;10.662;2023-03-15T12:39:50;101452.84;;;3.27
8533;BMP280;4304;53.876;10.662;2023-03-15T12:56:12;101453.47;;;4.22
8533;BMP280;4304;53.876;10.662;2023-03-15T12:58:43;101453.91;;;4.36
8533;BMP280;4304;53.876;10.662;2023-03-15T13:01:11;101448.34;;;4.49
8533;BMP280;4304;53.876;10.662;2023-03-15T13:03:40;101474.22;;;4.70
8533;BMP280;4304;53.876;10.662;2023-03-15T13:08:49;101472.66;;;4.65
8533;BMP280;4304;53.876;10.662;2023-03-15T13:16:32;101483.69;;;4.16
8533;BMP280;4304;53.876;10.662;2023-03-15T13:19:27;101489.09;;;4.07
8533;BMP280;4304;53.876;10.662;2023-03-15T13:29:49;101505.56;;;4.01
8533;BMP280;4304;53.876;10.662;2023-03-15T13:32:17;101524.53;;;3.97
8533;BMP280;4304;53.876;10.662;2023-03-15T13:34:44;101537.16;;;4.05
8533;BMP280;4304;53.876;10.662;2023-03-15T13:37:22;101517.56;;;3.71
8533;BMP280;4304;53.876;10.662;2023-03-15T13:40:00;101523.47;;;3.44
8533;BMP280;4304;53.876;10.662;2023-03-15T13:42:26;101523.25;;;3.51
8533;BMP280;4304;53.876;10.662;2023-03-15T13:45:11;101535.22;;;3.52
8533;BMP280;4304;53.876;10.662;2023-03-15T13:47:40;101533.03;;;3.38
8533;BMP280;4304;53.876;10.662;2023-03-15T13:50:11;101550.03;;;3.43
8533;BMP280;4304;53.876;10.662;2023-03-15T13:52:36;101578.69;;;3.60
8533;BMP280;4304;53.876;10.662;2023-03-15T13:55:02;101564.38;;;3.50
8533;BMP280;4304;53.876;10.662;2023-03-15T13:57:29;101567.66;;;3.23
8533;BMP280;4304;53.876;10.662;2023-03-15T14:00:13;101577.81;;;3.28
8533;BMP280;4304;53.876;10.662;2023-03-15T14:05:16;101563.03;;;3.02
8533;BMP280;4304;53.876;10.662;2023-03-15T14:07:46;101561.25;;;3.04
8533;BMP280;4304;53.876;10.662;2023-03-15T14:12:44;101555.63;;;3.25
8533;BMP280;4304;53.876;10.662;2023-03-15T14:15:18;101555.38;;;3.34
8533;BMP280;4304;53.876;10.662;2023-03-15T14:18:02;101546.34;;;3.53
8533;BMP280;4304;53.876;10.662;2023-03-15T14:20:30;101545.59;;;3.48
8533;BMP280;4304;53.876;10.662;2023-03-15T14:23:00;101543.28;;;3.71
8533;BMP280;4304;53.876;10.662;2023-03-15T14:25:26;101548.13;;;3.81
8533;BMP280;4304;53.876;10.662;2023-03-15T14:27:52;101549.75;;;3.85
8533;BMP280;4304;53.876;10.662;2023-03-15T14:30:22;101556.19;;;3.98
8533;BMP280;4304;53.876;10.662;2023-03-15T14:32:54;101543.94;;;4.07
8533;BMP280;4304;53.876;10.662;2023-03-15T14:35:30;101546.44;;;4.10
8533;BMP280;4304;53.876;10.662;2023-03-15T14:38:06;101564.63;;;4.03
8533;BMP280;4304;53.876;10.662;2023-03-15T14:40:35;101569.13;;;3.96
8533;BMP280;4304;53.876;10.662;2023-03-15T14:43:02;101585.31;;;4.00
8533;BMP280;4304;53.876;10.662;2023-03-15T14:45:30;101581.84;;;4.01
8533;BMP280;4304;53.876;10.662;2023-03-15T14:48:01;101572.78;;;3.88
8533;BMP280;4304;53.876;10.662;2023-03-15T14:50:33;101575.25;;;3.91
8533;BMP280;4304;53.876;10.662;2023-03-15T14:53:00;101572.56;;;3.95
8533;BMP280;4304;53.876;10.662;2023-03-15T14:55:31;101575.00;;;4.01
8533;BMP280;4304;53.876;10.662;2023-03-15T14:57:59;101569.97;;;3.97
8533;BMP280;4304;53.876;10.662;2023-03-15T15:00:25;101568.97;;;4.01
8533;BMP280;4304;53.876;10.662;2023-03-15T15:02:53;101570.56;;;4.06
8533;BMP280;4304;53.876;10.662;2023-03-15T15:05:33;101568.88;;;4.05
8533;BMP280;4304;53.876;10.662;2023-03-15T15:08:09;101568.16;;;4.00
8533;BMP280;4304;53.876;10.662;2023-03-15T15:10:38;101568.72;;;4.11
8533;BMP280;4304;53.876;10.662;2023-03-15T15:13:03;101571.91;;;4.18
8533;BMP280;4304;53.876;10.662;2023-03-15T15:15:28;101572.47;;;4.28
8533;BMP280;4304;53.876;10.662;2023-03-15T15:17:54;101579.94;;;4.37
8533;BMP280;4304;53.876;10.662;2023-03-15T15:20:20;101571.91;;;4.48
8533;BMP280;4304;53.876;10.662;2023-03-15T15:22:47;101567.78;;;4.42
8533;BMP280;4304;53.876;10.662;2023-03-15T15:27:38;101579.38;;;4.55
8533;BMP280;4304;53.876;10.662;2023-03-15T15:30:04;101573.41;;;4.55
8533;BMP280;4304;53.876;10.662;2023-03-15T15:32:29;101573.78;;;4.70
8533;BMP280;4304;53.876;10.662;2023-03-15T15:34:57;101576.00;;;4.82
8533;BMP280;4304;53.876;10.662;2023-03-15T15:37:23;101572.94;;;4.97
8533;BMP280;4304;53.876;10.662;2023-03-15T15:39:48;101578.75;;;5.03
8533;BMP280;4304;53.876;10.662;2023-03-15T15:42:14;101585.34;;;5.11
8533;BMP280;4304;53.876;10.662;2023-03-15T15:44:40;101591.88;;;5.21